Airport Name : Kabul Intl

Other Name : Kabul Intl

ICAO : OAKB

IATA : KBL

FAA :

Latitude : 34.565853

Longitude : 69.212328

Country : Afghanistan

Local Date and Time : 01 Dec 2020 22:39

 

TAF (Terminal Aerodrome Forecast)

TAF OAKB 011705Z 0118/0218 VRB02KT 2000 FU NSC BECMG 0118/0119 1200 TEMPO 0119/0123 0800 BECMG 0206/0208 3000 BECMG 0208/0210 7000 NSW FEW100 BECMG 0212/0214 4000 FU NSC

 

METAR (METeorological Aerodrome Report)

OAKB 011650Z 20003KT 2000 FU NSC 07/04 Q1026 RMK A3032 YLO YLO

OAKB 011550Z 23003KT 2400 FU NSC 07/04 Q1026 RMK A3031 YLO YLO

OAKB 011450Z VRB03KT 3200 FU NSC 09/03 Q1026 RMK A3030 YLO YLO

To Charter a Jet Click here.